sensor_id;sensor_type;location;lat;lon;timestamp;pressure;altitude;pressure_sealevel;temperature;humidity
39265;BME280;42646;51.910;7.724;2022-12-13T00:01:44;100672.00;;;-4.85;100.00
39265;BME280;42646;51.910;7.724;2022-12-13T00:04:12;100678.09;;;-4.86;100.00
39265;BME280;42646;51.910;7.724;2022-12-13T00:06:42;100672.06;;;-4.86;100.00
39265;BME280;42646;51.910;7.724;2022-12-13T00:09:13;100678.13;;;-4.87;100.00
39265;BME280;42646;51.910;7.724;2022-12-13T00:11:42;100673.81;;;-4.88;100.00
39265;BME280;42646;51.910;7.724;2022-12-13T00:14:12;100669.56;;;-4.91;100.00
39265;BME280;42646;51.910;7.724;2022-12-13T00:16:43;100663.53;;;-4.91;100.00
39265;BME280;42646;51.910;7.724;2022-12-13T00:19:12;100660.97;;;-4.93;100.00
39265;BME280;42646;51.910;7.724;2022-12-13T00:21:41;100661.78;;;-4.91;100.00
39265;BME280;42646;51.910;7.724;2022-12-13T00:24:09;100663.56;;;-4.93;100.00
39265;BME280;42646;51.910;7.724;2022-12-13T00:26:38;100657.50;;;-4.92;100.00
39265;BME280;42646;51.910;7.724;2022-12-13T00:29:07;100656.63;;;-4.92;100.00
39265;BME280;42646;51.910;7.724;2022-12-13T00:31:35;100653.16;;;-4.91;100.00
39265;BME280;42646;51.910;7.724;2022-12-13T00:34:23;100658.34;;;-4.91;100.00
39265;BME280;42646;51.910;7.724;2022-12-13T00:36:52;100652.31;;;-4.92;100.00
39265;BME280;42646;51.910;7.724;2022-12-13T00:39:21;100654.88;;;-4.90;100.00
39265;BME280;42646;51.910;7.724;2022-12-13T00:41:52;100644.47;;;-4.90;100.00
39265;BME280;42646;51.910;7.724;2022-12-13T00:44:20;100647.88;;;-4.88;100.00
39265;BME280;42646;51.910;7.724;2022-12-13T00:46:48;100651.31;;;-4.88;100.00
39265;BME280;42646;51.910;7.724;2022-12-13T00:49:17;100647.81;;;-4.87;100.00
39265;BME280;42646;51.910;7.724;2022-12-13T00:51:45;100643.47;;;-4.85;100.00
39265;BME280;42646;51.910;7.724;2022-12-13T00:54:16;100643.38;;;-4.81;100.00
39265;BME280;42646;51.910;7.724;2022-12-13T00:56:44;100645.06;;;-4.80;100.00
39265;BME280;42646;51.910;7.724;2022-12-13T00:59:13;100638.13;;;-4.78;100.00
39265;BME280;42646;51.910;7.724;2022-12-13T01:01:42;100631.13;;;-4.76;100.00
39265;BME280;42646;51.910;7.724;2022-12-13T01:04:11;100631.91;;;-4.74;100.00
39265;BME280;42646;51.910;7.724;2022-12-13T01:06:40;100635.41;;;-4.74;100.00
39265;BME280;42646;51.910;7.724;2022-12-13T01:09:15;100638.00;;;-4.74;100.00
39265;BME280;42646;51.910;7.724;2022-12-13T01:11:44;100635.41;;;-4.74;100.00
39265;BME280;42646;51.910;7.724;2022-12-13T01:14:11;100634.50;;;-4.73;100.00
39265;BME280;42646;51.910;7.724;2022-12-13T01:16:40;100635.34;;;-4.72;100.00
39265;BME280;42646;51.910;7.724;2022-12-13T01:19:11;100638.00;;;-4.74;100.00
39265;BME280;42646;51.910;7.724;2022-12-13T01:21:38;100636.19;;;-4.72;100.00
39265;BME280;42646;51.910;7.724;2022-12-13T01:24:06;100636.16;;;-4.70;100.00
39265;BME280;42646;51.910;7.724;2022-12-13T01:26:35;100642.19;;;-4.70;100.00
39265;BME280;42646;51.910;7.724;2022-12-13T01:29:03;100646.47;;;-4.69;100.00
39265;BME280;42646;51.910;7.724;2022-12-13T01:31:33;100645.56;;;-4.66;100.00
39265;BME280;42646;51.910;7.724;2022-12-13T01:34:05;100637.78;;;-4.66;100.00
39265;BME280;42646;51.910;7.724;2022-12-13T01:36:36;100640.31;;;-4.65;100.00
39265;BME280;42646;51.910;7.724;2022-12-13T01:39:05;100632.53;;;-4.65;100.00
39265;BME280;42646;51.910;7.724;2022-12-13T01:41:42;100634.22;;;-4.64;100.00
39265;BME280;42646;51.910;7.724;2022-12-13T01:47:13;100630.72;;;-4.63;100.00
39265;BME280;42646;51.910;7.724;2022-12-13T01:49:46;100636.81;;;-4.62;100.00
39265;BME280;42646;51.910;7.724;2022-12-13T01:52:15;100628.13;;;-4.61;100.00
39265;BME280;42646;51.910;7.724;2022-12-13T01:54:45;100630.66;;;-4.60;100.00
39265;BME280;42646;51.910;7.724;2022-12-13T01:57:16;100631.50;;;-4.59;100.00
39265;BME280;42646;51.910;7.724;2022-12-13T01:59:47;100628.06;;;-4.60;100.00
39265;BME280;42646;51.910;7.724;2022-12-13T02:02:16;100629.81;;;-4.60;100.00
39265;BME280;42646;51.910;7.724;2022-12-13T02:04:54;100627.28;;;-4.62;100.00
39265;BME280;42646;51.910;7.724;2022-12-13T02:07:27;100623.81;;;-4.62;100.00
39265;BME280;42646;51.910;7.724;2022-12-13T02:10:00;100623.81;;;-4.62;100.00
39265;BME280;42646;51.910;7.724;2022-12-13T02:12:32;100629.03;;;-4.64;100.00
39265;BME280;42646;51.910;7.724;2022-12-13T02:15:03;100623.91;;;-4.65;100.00
39265;BME280;42646;51.910;7.724;2022-12-13T02:17:44;100626.53;;;-4.67;100.00
39265;BME280;42646;51.910;7.724;2022-12-13T02:20:37;100627.47;;;-4.69;100.00
39265;BME280;42646;51.910;7.724;2022-12-13T02:23:40;100637.03;;;-4.71;100.00
39265;BME280;42646;51.910;7.724;2022-12-13T02:29:38;100642.31;;;-4.74;100.00
39265;BME280;42646;51.910;7.724;2022-12-13T02:32:23;100638.91;;;-4.76;100.00
39265;BME280;42646;51.910;7.724;2022-12-13T02:35:02;100640.66;;;-4.77;100.00
39265;BME280;42646;51.910;7.724;2022-12-13T02:37:40;100639.88;;;-4.79;100.00
39265;BME280;42646;51.910;7.724;2022-12-13T02:40:17;100639.00;;;-4.79;100.00
39265;BME280;42646;51.910;7.724;2022-12-13T02:42:51;100632.09;;;-4.80;100.00
39265;BME280;42646;51.910;7.724;2022-12-13T02:45:24;100642.47;;;-4.80;100.00
39265;BME280;42646;51.910;7.724;2022-12-13T02:47:58;100634.75;;;-4.82;100.00
39265;BME280;42646;51.910;7.724;2022-12-13T02:50:32;100639.94;;;-4.82;100.00
39265;BME280;42646;51.910;7.724;2022-12-13T02:53:01;100635.63;;;-4.83;100.00
39265;BME280;42646;51.910;7.724;2022-12-13T02:55:30;100633.09;;;-4.85;100.00
39265;BME280;42646;51.910;7.724;2022-12-13T02:58:01;100634.84;;;-4.87;100.00
39265;BME280;42646;51.910;7.724;2022-12-13T03:00:44;100634.84;;;-4.87;100.00
39265;BME280;42646;51.910;7.724;2022-12-13T03:03:26;100640.09;;;-4.88;100.00
39265;BME280;42646;51.910;7.724;2022-12-13T03:06:10;100637.59;;;-4.91;100.00
39265;BME280;42646;51.910;7.724;2022-12-13T03:09:13;100629.94;;;-4.96;100.00
39265;BME280;42646;51.910;7.724;2022-12-13T03:12:01;100631.69;;;-4.96;100.00
39265;BME280;42646;51.910;7.724;2022-12-13T03:14:55;100638.69;;;-5.00;100.00
39265;BME280;42646;51.910;7.724;2022-12-13T03:17:25;100631.91;;;-5.04;100.00
39265;BME280;42646;51.910;7.724;2022-12-13T03:19:56;100634.50;;;-5.05;100.00
39265;BME280;42646;51.910;7.724;2022-12-13T03:22:24;100636.28;;;-5.07;100.00
39265;BME280;42646;51.910;7.724;2022-12-13T03:24:51;100635.56;;;-5.13;100.00
39265;BME280;42646;51.910;7.724;2022-12-13T03:27:20;100638.28;;;-5.17;100.00
39265;BME280;42646;51.910;7.724;2022-12-13T03:29:50;100630.63;;;-5.22;100.00
39265;BME280;42646;51.910;7.724;2022-12-13T03:32:17;100625.47;;;-5.23;100.00
39265;BME280;42646;51.910;7.724;2022-12-13T03:34:46;100624.63;;;-5.24;100.00
39265;BME280;42646;51.910;7.724;2022-12-13T03:37:27;100631.53;;;-5.24;100.00
39265;BME280;42646;51.910;7.724;2022-12-13T03:39:57;100623.81;;;-5.26;100.00
39265;BME280;42646;51.910;7.724;2022-12-13T03:42:25;100635.09;;;-5.27;100.00
39265;BME280;42646;51.910;7.724;2022-12-13T03:44:55;100633.34;;;-5.28;100.00
39265;BME280;42646;51.910;7.724;2022-12-13T03:47:22;100640.28;;;-5.28;100.00
39265;BME280;42646;51.910;7.724;2022-12-13T03:49:50;100641.19;;;-5.29;100.00
39265;BME280;42646;51.910;7.724;2022-12-13T03:52:21;100637.75;;;-5.30;100.00
39265;BME280;42646;51.910;7.724;2022-12-13T03:54:50;100636.03;;;-5.31;100.00
39265;BME280;42646;51.910;7.724;2022-12-13T03:57:17;100634.38;;;-5.33;100.00
39265;BME280;42646;51.910;7.724;2022-12-13T03:59:45;100637.84;;;-5.34;100.00
39265;BME280;42646;51.910;7.724;2022-12-13T04:02:13;100634.44;;;-5.37;100.00
39265;BME280;42646;51.910;7.724;2022-12-13T04:04:56;100631.91;;;-5.40;100.00
39265;BME280;42646;51.910;7.724;2022-12-13T04:07:26;100634.56;;;-5.41;100.00
39265;BME280;42646;51.910;7.724;2022-12-13T04:10:02;100626.88;;;-5.44;100.00
39265;BME280;42646;51.910;7.724;2022-12-13T04:12:53;100623.59;;;-5.52;100.00
39265;BME280;42646;51.910;7.724;2022-12-13T04:15:39;100624.50;;;-5.53;100.00
39265;BME280;42646;51.910;7.724;2022-12-13T04:18:16;100623.69;;;-5.55;100.00
39265;BME280;42646;51.910;7.724;2022-12-13T04:21:10;100616.03;;;-5.60;100.00
39265;BME280;42646;51.910;7.724;2022-12-13T04:23:38;100620.41;;;-5.64;100.00
39265;BME280;42646;51.910;7.724;2022-12-13T04:26:07;100615.31;;;-5.67;100.00
39265;BME280;42646;51.910;7.724;2022-12-13T04:28:34;100617.13;;;-5.69;100.00
39265;BME280;42646;51.910;7.724;2022-12-13T04:31:02;100610.22;;;-5.70;100.00
39265;BME280;42646;51.910;7.724;2022-12-13T04:33:30;100614.59;;;-5.72;100.00
39265;BME280;42646;51.910;7.724;2022-12-13T04:35:58;100614.63;;;-5.73;100.00
39265;BME280;42646;51.910;7.724;2022-12-13T04:38:28;100614.69;;;-5.76;100.00
39265;BME280;42646;51.910;7.724;2022-12-13T04:41:03;100613.03;;;-5.79;100.00
39265;BME280;42646;51.910;7.724;2022-12-13T04:43:34;100615.69;;;-5.82;100.00
39265;BME280;42646;51.910;7.724;2022-12-13T04:46:04;100611.44;;;-5.84;100.00
39265;BME280;42646;51.910;7.724;2022-12-13T04:48:32;100609.78;;;-5.87;100.00
39265;BME280;42646;51.910;7.724;2022-12-13T04:51:00;100608.94;;;-5.89;100.00
39265;BME280;42646;51.910;7.724;2022-12-13T04:53:28;100611.59;;;-5.91;100.00
39265;BME280;42646;51.910;7.724;2022-12-13T04:55:56;100620.28;;;-5.93;100.00
39265;BME280;42646;51.910;7.724;2022-12-13T04:58:24;100616.91;;;-5.95;100.00
39265;BME280;42646;51.910;7.724;2022-12-13T05:00:54;100612.66;;;-5.98;100.00
39265;BME280;42646;51.910;7.724;2022-12-13T05:03:22;100612.66;;;-5.99;100.00
39265;BME280;42646;51.910;7.724;2022-12-13T05:05:53;100613.59;;;-6.02;100.00
39265;BME280;42646;51.910;7.724;2022-12-13T05:08:22;100616.28;;;-6.06;100.00
39265;BME280;42646;51.910;7.724;2022-12-13T05:10:53;100612.03;;;-6.09;100.00
39265;BME280;42646;51.910;7.724;2022-12-13T05:13:21;100610.41;;;-6.13;100.00
39265;BME280;42646;51.910;7.724;2022-12-13T05:15:54;100609.63;;;-6.16;100.00
39265;BME280;42646;51.910;7.724;2022-12-13T05:18:23;100600.19;;;-6.19;100.00
39265;BME280;42646;51.910;7.724;2022-12-13T05:20:51;100595.94;;;-6.22;100.00
39265;BME280;42646;51.910;7.724;2022-12-13T05:23:20;100595.09;;;-6.24;100.00
39265;BME280;42646;51.910;7.724;2022-12-13T05:25:48;100598.63;;;-6.26;100.00
39265;BME280;42646;51.910;7.724;2022-12-13T05:28:19;100603.00;;;-6.30;100.00
39265;BME280;42646;51.910;7.724;2022-12-13T05:30:57;100608.25;;;-6.33;100.00
39265;BME280;42646;51.910;7.724;2022-12-13T05:33:25;100609.16;;;-6.35;100.00
39265;BME280;42646;51.910;7.724;2022-12-13T05:35:53;100607.53;;;-6.39;100.00
39265;BME280;42646;51.910;7.724;2022-12-13T05:38:27;100604.16;;;-6.43;100.00
39265;BME280;42646;51.910;7.724;2022-12-13T05:40:55;100599.03;;;-6.44;100.00
39265;BME280;42646;51.910;7.724;2022-12-13T05:43:23;100599.91;;;-6.46;100.00
39265;BME280;42646;51.910;7.724;2022-12-13T05:46:10;100596.50;;;-6.48;100.00
39265;BME280;42646;51.910;7.724;2022-12-13T05:48:39;100591.34;;;-6.49;100.00
39265;BME280;42646;51.910;7.724;2022-12-13T05:51:08;100584.53;;;-6.52;100.00
39265;BME280;42646;51.910;7.724;2022-12-13T05:53:39;100588.00;;;-6.54;100.00
39265;BME280;42646;51.910;7.724;2022-12-13T05:56:10;100593.22;;;-6.56;100.00
39265;BME280;42646;51.910;7.724;2022-12-13T05:58:49;100596.72;;;-6.58;100.00
39265;BME280;42646;51.910;7.724;2022-12-13T06:01:21;100595.91;;;-6.60;100.00
39265;BME280;42646;51.910;7.724;2022-12-13T06:03:49;100599.41;;;-6.63;100.00
39265;BME280;42646;51.910;7.724;2022-12-13T06:06:20;100604.59;;;-6.64;100.00
39265;BME280;42646;51.910;7.724;2022-12-13T06:08:47;100603.78;;;-6.66;100.00
39265;BME280;42646;51.910;7.724;2022-12-13T06:11:17;100605.56;;;-6.68;100.00
39265;BME280;42646;51.910;7.724;2022-12-13T06:13:58;100599.59;;;-6.72;100.00
39265;BME280;42646;51.910;7.724;2022-12-13T06:16:28;100607.34;;;-6.72;100.00
39265;BME280;42646;51.910;7.724;2022-12-13T06:18:56;100610.00;;;-6.75;100.00
39265;BME280;42646;51.910;7.724;2022-12-13T06:21:30;100610.91;;;-6.78;100.00
39265;BME280;42646;51.910;7.724;2022-12-13T06:24:13;100597.19;;;-6.81;100.00
39265;BME280;42646;51.910;7.724;2022-12-13T06:26:41;100604.13;;;-6.82;100.00
39265;BME280;42646;51.910;7.724;2022-12-13T06:29:33;100602.50;;;-6.87;100.00
39265;BME280;42646;51.910;7.724;2022-12-13T06:32:03;100607.63;;;-6.86;100.00
39265;BME280;42646;51.910;7.724;2022-12-13T06:34:33;100605.09;;;-6.87;100.00
39265;BME280;42646;51.910;7.724;2022-12-13T06:37:04;100599.91;;;-6.89;100.00
39265;BME280;42646;51.910;7.724;2022-12-13T06:39:32;100596.53;;;-6.91;100.00
39265;BME280;42646;51.910;7.724;2022-12-13T06:42:09;100599.09;;;-6.91;100.00
39265;BME280;42646;51.910;7.724;2022-12-13T06:44:48;100597.44;;;-6.93;100.00
39265;BME280;42646;51.910;7.724;2022-12-13T06:47:23;100603.47;;;-6.94;100.00
39265;BME280;42646;51.910;7.724;2022-12-13T06:49:58;100594.03;;;-6.95;100.00
39265;BME280;42646;51.910;7.724;2022-12-13T06:52:31;100601.84;;;-6.98;100.00
39265;BME280;42646;51.910;7.724;2022-12-13T06:54:59;100589.81;;;-7.01;100.00
39265;BME280;42646;51.910;7.724;2022-12-13T06:57:28;100595.91;;;-7.04;100.00
39265;BME280;42646;51.910;7.724;2022-12-13T06:59:58;100591.63;;;-7.05;100.00
39265;BME280;42646;51.910;7.724;2022-12-13T07:02:27;100592.47;;;-7.06;100.00
39265;BME280;42646;51.910;7.724;2022-12-13T07:04:55;100589.91;;;-7.06;100.00
39265;BME280;42646;51.910;7.724;2022-12-13T07:07:24;100595.09;;;-7.07;100.00
39265;BME280;42646;51.910;7.724;2022-12-13T07:09:54;100589.13;;;-7.09;100.00
39265;BME280;42646;51.910;7.724;2022-12-13T07:12:22;100585.72;;;-7.11;100.00
39265;BME280;42646;51.910;7.724;2022-12-13T07:14:51;100587.47;;;-7.13;100.00
39265;BME280;42646;51.910;7.724;2022-12-13T07:17:20;100584.06;;;-7.15;100.00
39265;BME280;42646;51.910;7.724;2022-12-13T07:20:06;100576.34;;;-7.18;100.00
39265;BME280;42646;51.910;7.724;2022-12-13T07:22:36;100586.75;;;-7.20;100.00
39265;BME280;42646;51.910;7.724;2022-12-13T07:25:13;100591.94;;;-7.21;100.00
39265;BME280;42646;51.910;7.724;2022-12-13T07:27:57;100587.66;;;-7.22;100.00
39265;BME280;42646;51.910;7.724;2022-12-13T07:30:27;100591.94;;;-7.21;100.00
39265;BME280;42646;51.910;7.724;2022-12-13T07:32:55;100596.25;;;-7.23;100.00
39265;BME280;42646;51.910;7.724;2022-12-13T07:35:25;100590.25;;;-7.24;100.00
39265;BME280;42646;51.910;7.724;2022-12-13T07:37:52;100596.31;;;-7.25;100.00
39265;BME280;42646;51.910;7.724;2022-12-13T07:40:20;100603.22;;;-7.26;100.00
39265;BME280;42646;51.910;7.724;2022-12-13T07:42:48;100596.34;;;-7.27;100.00
39265;BME280;42646;51.910;7.724;2022-12-13T07:45:17;100605.81;;;-7.27;100.00
39265;BME280;42646;51.910;7.724;2022-12-13T07:47:47;100602.41;;;-7.28;100.00
39265;BME280;42646;51.910;7.724;2022-12-13T07:50:15;100608.44;;;-7.29;100.00
39265;BME280;42646;51.910;7.724;2022-12-13T07:52:52;100608.44;;;-7.29;100.00
39265;BME280;42646;51.910;7.724;2022-12-13T07:55:20;100612.75;;;-7.29;100.00
39265;BME280;42646;51.910;7.724;2022-12-13T07:58:05;100595.53;;;-7.30;100.00
39265;BME280;42646;51.910;7.724;2022-12-13T08:00:34;100598.13;;;-7.30;100.00
39265;BME280;42646;51.910;7.724;2022-12-13T08:03:03;100594.69;;;-7.29;100.00
39265;BME280;42646;51.910;7.724;2022-12-13T08:05:34;100599.84;;;-7.29;100.00
39265;BME280;42646;51.910;7.724;2022-12-13T08:08:07;100606.72;;;-7.28;100.00
39265;BME280;42646;51.910;7.724;2022-12-13T08:10:36;100603.28;;;-7.29;100.00
39265;BME280;42646;51.910;7.724;2022-12-13T08:13:04;100605.00;;;-7.29;100.00
39265;BME280;42646;51.910;7.724;2022-12-13T08:15:58;100609.25;;;-7.27;100.00
39265;BME280;42646;51.910;7.724;2022-12-13T08:18:27;100610.06;;;-7.24;100.00
39265;BME280;42646;51.910;7.724;2022-12-13T08:20:58;100604.91;;;-7.23;100.00
39265;BME280;42646;51.910;7.724;2022-12-13T08:23:29;100604.88;;;-7.21;100.00
39265;BME280;42646;51.910;7.724;2022-12-13T08:25:59;100613.44;;;-7.19;100.00
39265;BME280;42646;51.910;7.724;2022-12-13T08:28:29;100603.06;;;-7.16;100.00
39265;BME280;42646;51.910;7.724;2022-12-13T08:31:02;100612.47;;;-7.14;100.00
39265;BME280;42646;51.910;7.724;2022-12-13T08:33:32;100607.25;;;-7.12;100.00
39265;BME280;42646;51.910;7.724;2022-12-13T08:36:07;100608.16;;;-7.13;100.00
39265;BME280;42646;51.910;7.724;2022-12-13T08:38:37;100602.94;;;-7.10;100.00
39265;BME280;42646;51.910;7.724;2022-12-13T08:41:05;100610.66;;;-7.09;100.00
39265;BME280;42646;51.910;7.724;2022-12-13T08:43:34;100607.16;;;-7.06;100.00
39265;BME280;42646;51.910;7.724;2022-12-13T08:46:02;100593.31;;;-7.04;100.00
39265;BME280;42646;51.910;7.724;2022-12-13T08:48:29;100598.44;;;-7.01;100.00
39265;BME280;42646;51.910;7.724;2022-12-13T08:51:00;100600.06;;;-6.96;100.00
39265;BME280;42646;51.910;7.724;2022-12-13T08:53:28;100605.09;;;-6.89;100.00
39265;BME280;42646;51.910;7.724;2022-12-13T08:56:10;100611.84;;;-6.80;100.00
39265;BME280;42646;51.910;7.724;2022-12-13T08:58:38;100609.94;;;-6.72;100.00
39265;BME280;42646;51.910;7.724;2022-12-13T09:01:06;100602.09;;;-6.67;100.00
39265;BME280;42646;51.910;7.724;2022-12-13T09:03:34;100609.75;;;-6.63;100.00
39265;BME280;42646;51.910;7.724;2022-12-13T09:06:06;100613.13;;;-6.59;100.00
39265;BME280;42646;51.910;7.724;2022-12-13T09:08:40;100613.91;;;-6.56;100.00
39265;BME280;42646;51.910;7.724;2022-12-13T09:11:10;100618.03;;;-6.47;100.00
39265;BME280;42646;51.910;7.724;2022-12-13T09:13:49;100621.25;;;-6.36;100.00
39265;BME280;42646;51.910;7.724;2022-12-13T09:16:18;100624.53;;;-6.28;100.00
39265;BME280;42646;51.910;7.724;2022-12-13T09:18:50;100623.53;;;-6.21;100.00
39265;BME280;42646;51.910;7.724;2022-12-13T09:21:21;100633.75;;;-6.14;100.00
39265;BME280;42646;51.910;7.724;2022-12-13T09:24:13;100631.06;;;-6.10;100.00
39265;BME280;42646;51.910;7.724;2022-12-13T09:26:51;100625.66;;;-6.01;100.00
39265;BME280;42646;51.910;7.724;2022-12-13T09:29:23;100624.53;;;-5.91;100.00
39265;BME280;42646;51.910;7.724;2022-12-13T09:31:51;100639.78;;;-5.78;100.00
39265;BME280;42646;51.910;7.724;2022-12-13T09:34:19;100641.28;;;-5.68;100.00
39265;BME280;42646;51.910;7.724;2022-12-13T09:36:47;100636.75;;;-5.60;100.00
39265;BME280;42646;51.910;7.724;2022-12-13T09:39:16;100632.22;;;-5.52;100.00
39265;BME280;42646;51.910;7.724;2022-12-13T09:41:47;100635.44;;;-5.42;100.00
39265;BME280;42646;51.910;7.724;2022-12-13T09:44:19;100640.59;;;-5.41;100.00
39265;BME280;42646;51.910;7.724;2022-12-13T09:47:01;100638.69;;;-5.34;100.00
39265;BME280;42646;51.910;7.724;2022-12-13T09:49:43;100633.41;;;-5.29;100.00
39265;BME280;42646;51.910;7.724;2022-12-13T09:52:21;100640.16;;;-5.24;100.00
39265;BME280;42646;51.910;7.724;2022-12-13T09:54:52;100636.56;;;-5.18;100.00
39265;BME280;42646;51.910;7.724;2022-12-13T09:57:24;100631.16;;;-5.09;100.00
39265;BME280;42646;51.910;7.724;2022-12-13T10:00:03;100639.53;;;-4.99;100.00
39265;BME280;42646;51.910;7.724;2022-12-13T10:02:42;100633.28;;;-4.92;100.00
39265;BME280;42646;51.910;7.724;2022-12-13T10:05:18;100631.41;;;-4.86;100.00
39265;BME280;42646;51.910;7.724;2022-12-13T10:08:03;100631.13;;;-4.76;100.00
39265;BME280;42646;51.910;7.724;2022-12-13T10:10:32;100627.47;;;-4.69;100.00
39265;BME280;42646;51.910;7.724;2022-12-13T10:13:09;100625.47;;;-4.60;100.00
39265;BME280;42646;51.910;7.724;2022-12-13T10:15:42;100622.63;;;-4.50;100.00
39265;BME280;42646;51.910;7.724;2022-12-13T10:18:15;100622.34;;;-4.41;100.00
39265;BME280;42646;51.910;7.724;2022-12-13T10:20:48;100616.13;;;-4.36;100.00
39265;BME280;42646;51.910;7.724;2022-12-13T10:23:16;100609.91;;;-4.30;100.00
39265;BME280;42646;51.910;7.724;2022-12-13T10:26:08;100608.81;;;-4.23;100.00
39265;BME280;42646;51.910;7.724;2022-12-13T10:29:00;100604.25;;;-4.15;100.00
39265;BME280;42646;51.910;7.724;2022-12-13T10:31:37;100608.25;;;-4.05;100.00
39265;BME280;42646;51.910;7.724;2022-12-13T10:34:15;100601.03;;;-3.95;100.00
39265;BME280;42646;51.910;7.724;2022-12-13T10:36:46;100592.25;;;-3.91;100.00
39265;BME280;42646;51.910;7.724;2022-12-13T10:39:16;100594.66;;;-3.85;100.00
39265;BME280;42646;51.910;7.724;2022-12-13T10:41:45;100585.00;;;-3.81;100.00
39265;BME280;42646;51.910;7.724;2022-12-13T10:44:22;100589.91;;;-3.72;100.00
39265;BME280;42646;51.910;7.724;2022-12-13T10:47:14;100575.69;;;-3.62;100.00
39265;BME280;42646;51.910;7.724;2022-12-13T10:49:48;100569.41;;;-3.55;100.00
39265;BME280;42646;51.910;7.724;2022-12-13T10:52:27;100567.38;;;-3.46;100.00
39265;BME280;42646;51.910;7.724;2022-12-13T10:55:25;100559.38;;;-3.40;100.00
39265;BME280;42646;51.910;7.724;2022-12-13T10:57:57;100565.13;;;-3.31;100.00
39265;BME280;42646;51.910;7.724;2022-12-13T11:00:37;100562.31;;;-3.25;100.00
39265;BME280;42646;51.910;7.724;2022-12-13T11:03:11;100561.19;;;-3.17;100.00
39265;BME280;42646;51.910;7.724;2022-12-13T11:06:02;100559.28;;;-3.12;100.00
39265;BME280;42646;51.910;7.724;2022-12-13T11:08:30;100561.66;;;-3.06;100.00
39265;BME280;42646;51.910;7.724;2022-12-13T11:11:01;100557.91;;;-2.99;100.00
39265;BME280;42646;51.910;7.724;2022-12-13T11:13:36;100553.34;;;-2.92;100.00
39265;BME280;42646;51.910;7.724;2022-12-13T11:16:32;100550.50;;;-2.86;100.00
39265;BME280;42646;51.910;7.724;2022-12-13T11:19:03;100545.09;;;-2.80;100.00
39265;BME280;42646;51.910;7.724;2022-12-13T11:21:33;100546.78;;;-2.79;100.00
39265;BME280;42646;51.910;7.724;2022-12-13T11:24:05;100546.53;;;-2.73;100.00
39265;BME280;42646;51.910;7.724;2022-12-13T11:26:36;100538.63;;;-2.70;100.00
39265;BME280;42646;51.910;7.724;2022-12-13T11:29:18;100540.16;;;-2.64;100.00
39265;BME280;42646;51.910;7.724;2022-12-13T11:31:58;100536.53;;;-2.60;100.00
39265;BME280;42646;51.910;7.724;2022-12-13T11:34:36;100537.25;;;-2.57;100.00
39265;BME280;42646;51.910;7.724;2022-12-13T11:37:17;100539.69;;;-2.52;100.00
39265;BME280;42646;51.910;7.724;2022-12-13T11:39:57;100525.75;;;-2.51;100.00
39265;BME280;42646;51.910;7.724;2022-12-13T11:42:32;100519.59;;;-2.49;100.00
39265;BME280;42646;51.910;7.724;2022-12-13T11:45:09;100512.41;;;-2.42;100.00
39265;BME280;42646;51.910;7.724;2022-12-13T11:47:56;100505.19;;;-2.35;100.00
39265;BME280;42646;51.910;7.724;2022-12-13T11:50:30;100498.22;;;-2.35;100.00
39265;BME280;42646;51.910;7.724;2022-12-13T11:53:15;100500.75;;;-2.33;100.00
39265;BME280;42646;51.910;7.724;2022-12-13T11:55:51;100488.50;;;-2.31;100.00
39265;BME280;42646;51.910;7.724;2022-12-13T11:58:26;100479.75;;;-2.29;100.00
39265;BME280;42646;51.910;7.724;2022-12-13T12:01:21;100480.41;;;-2.24;100.00
39265;BME280;42646;51.910;7.724;2022-12-13T12:03:57;100481.19;;;-2.22;100.00
39265;BME280;42646;51.910;7.724;2022-12-13T12:06:34;100493.25;;;-2.19;100.00
39265;BME280;42646;51.910;7.724;2022-12-13T12:09:06;100494.09;;;-2.19;100.00
39265;BME280;42646;51.910;7.724;2022-12-13T12:11:44;100491.28;;;-2.14;100.00
39265;BME280;42646;51.910;7.724;2022-12-13T12:14:15;100484.13;;;-2.09;100.00
39265;BME280;42646;51.910;7.724;2022-12-13T12:16:50;100487.47;;;-2.05;100.00
39265;BME280;42646;51.910;7.724;2022-12-13T12:19:21;100484.03;;;-2.06;100.00
39265;BME280;42646;51.910;7.724;2022-12-13T12:22:04;100490.00;;;-2.04;100.00
39265;BME280;42646;51.910;7.724;2022-12-13T12:25:19;100489.84;;;-1.99;100.00
39265;BME280;42646;51.910;7.724;2022-12-13T12:27:57;100477.53;;;-1.96;100.00
39265;BME280;42646;51.910;7.724;2022-12-13T12:30:36;100479.22;;;-1.95;100.00
39265;BME280;42646;51.910;7.724;2022-12-13T12:33:15;100477.38;;;-1.93;100.00
39265;BME280;42646;51.910;7.724;2022-12-13T12:35:58;100474.66;;;-1.90;100.00
39265;BME280;42646;51.910;7.724;2022-12-13T12:38:46;100470.31;;;-1.89;100.00
39265;BME280;42646;51.910;7.724;2022-12-13T12:41:27;100468.47;;;-1.87;100.00
39265;BME280;42646;51.910;7.724;2022-12-13T12:44:04;100463.97;;;-1.83;100.00
39265;BME280;42646;51.910;7.724;2022-12-13T12:46:45;100464.81;;;-1.83;100.00
39265;BME280;42646;51.910;7.724;2022-12-13T12:50:02;100462.16;;;-1.81;100.00
39265;BME280;42646;51.910;7.724;2022-12-13T12:52:41;100469.81;;;-1.78;100.00
39265;BME280;42646;51.910;7.724;2022-12-13T12:55:18;100466.09;;;-1.73;100.00
39265;BME280;42646;51.910;7.724;2022-12-13T12:57:54;100469.53;;;-1.71;100.00
39265;BME280;42646;51.910;7.724;2022-12-13T13:00:29;100463.47;;;-1.71;100.00
39265;BME280;42646;51.910;7.724;2022-12-13T13:03:09;100462.53;;;-1.70;100.00
39265;BME280;42646;51.910;7.724;2022-12-13T13:05:51;100462.47;;;-1.69;100.00
39265;BME280;42646;51.910;7.724;2022-12-13T13:08:33;100452.97;;;-1.70;100.00
39265;BME280;42646;51.910;7.724;2022-12-13T13:11:04;100454.66;;;-1.69;100.00
39265;BME280;42646;51.910;7.724;2022-12-13T13:14:02;100460.59;;;-1.65;100.00
39265;BME280;42646;51.910;7.724;2022-12-13T13:16:34;100461.44;;;-1.65;100.00
39265;BME280;42646;51.910;7.724;2022-12-13T13:19:04;100455.22;;;-1.62;100.00
39265;BME280;42646;51.910;7.724;2022-12-13T13:21:43;100456.91;;;-1.61;100.00